createdAt,value
2022-12-06T00:02:10.583Z,4.93
2022-12-06T00:04:37.161Z,4.94
2022-12-06T00:07:03.871Z,4.96
2022-12-06T00:09:32.026Z,4.95
2022-12-06T00:11:58.638Z,4.89
2022-12-06T00:14:26.212Z,4.95
2022-12-06T00:16:52.798Z,4.96
2022-12-06T00:19:21.572Z,4.97
2022-12-06T00:21:48.404Z,4.98
2022-12-06T00:24:17.500Z,4.97
2022-12-06T00:26:46.444Z,4.97
2022-12-06T00:29:19.089Z,4.96
2022-12-06T00:31:46.265Z,4.96
2022-12-06T00:34:13.285Z,4.96
2022-12-06T00:36:41.838Z,4.93
2022-12-06T00:39:11.689Z,4.94
2022-12-06T00:41:38.716Z,4.94
2022-12-06T00:44:05.886Z,4.92
2022-12-06T00:46:33.615Z,4.93
2022-12-06T00:49:03.941Z,4.91
2022-12-06T00:51:32.108Z,4.91
2022-12-06T00:53:59.069Z,4.84
2022-12-06T00:56:26.384Z,4.90
2022-12-06T00:58:53.232Z,4.89
2022-12-06T01:01:23.132Z,4.89
2022-12-06T01:03:52.207Z,4.88
2022-12-06T01:06:21.281Z,4.85
2022-12-06T01:08:47.879Z,4.85
2022-12-06T01:11:16.336Z,4.83
2022-12-06T01:13:43.848Z,4.81
2022-12-06T01:16:16.050Z,4.77
2022-12-06T01:18:43.762Z,4.80
2022-12-06T01:21:15.869Z,4.77
2022-12-06T01:23:43.287Z,4.75
2022-12-06T01:26:20.576Z,4.73
2022-12-06T01:28:47.726Z,4.71
2022-12-06T01:31:15.313Z,4.71
2022-12-06T01:33:42.395Z,4.68
2022-12-06T01:36:09.065Z,4.68
2022-12-06T01:38:35.628Z,4.64
2022-12-06T01:41:02.403Z,4.64
2022-12-06T01:43:41.013Z,4.59
2022-12-06T01:46:37.826Z,4.54
2022-12-06T01:49:13.678Z,4.51
2022-12-06T01:52:04.443Z,4.48
2022-12-06T01:54:32.516Z,4.49
2022-12-06T01:57:01.913Z,4.47
2022-12-06T01:59:29.585Z,4.45
2022-12-06T02:01:56.932Z,4.43
2022-12-06T02:04:24.246Z,4.41
2022-12-06T02:06:53.553Z,4.39
2022-12-06T02:09:20.870Z,4.36
2022-12-06T02:11:47.437Z,4.35
2022-12-06T02:14:19.233Z,4.34
2022-12-06T02:16:58.205Z,4.32
2022-12-06T02:19:58.228Z,4.30
2022-12-06T02:22:52.777Z,4.27
2022-12-06T02:25:48.615Z,4.25
2022-12-06T02:28:42.882Z,4.23
2022-12-06T02:31:34.011Z,4.22
2022-12-06T02:34:08.922Z,4.20
2022-12-06T02:36:46.233Z,4.16
2022-12-06T02:39:19.384Z,4.15
2022-12-06T02:41:54.451Z,4.15
2022-12-06T02:44:28.692Z,4.14
2022-12-06T02:46:57.430Z,4.12
2022-12-06T02:49:26.993Z,4.13
2022-12-06T02:51:54.496Z,4.10
2022-12-06T02:54:22.994Z,4.08
2022-12-06T02:56:49.496Z,4.06
2022-12-06T02:59:16.106Z,4.04
2022-12-06T03:01:47.485Z,4.02
2022-12-06T03:04:31.780Z,3.97
2022-12-06T03:07:12.538Z,3.92
2022-12-06T03:10:02.152Z,3.88
2022-12-06T03:12:55.602Z,3.82
2022-12-06T03:15:25.077Z,3.79
2022-12-06T03:18:03.031Z,3.73
2022-12-06T03:20:40.025Z,3.69
2022-12-06T03:23:09.222Z,3.65
2022-12-06T03:25:36.608Z,3.61
2022-12-06T03:28:05.646Z,3.56
2022-12-06T03:30:34.644Z,3.52
2022-12-06T03:33:02.915Z,3.47
2022-12-06T03:35:32.615Z,3.43
2022-12-06T03:38:16.629Z,3.39
2022-12-06T03:40:47.821Z,3.36
2022-12-06T03:43:15.249Z,3.33
2022-12-06T03:45:52.095Z,3.28
2022-12-06T03:48:28.228Z,3.25
2022-12-06T03:51:22.611Z,3.21
2022-12-06T03:53:53.665Z,3.21
2022-12-06T03:56:21.625Z,3.20
2022-12-06T03:58:48.215Z,3.18
2022-12-06T04:01:15.061Z,3.16
2022-12-06T04:03:41.746Z,3.14
2022-12-06T04:06:10.541Z,3.13
2022-12-06T04:08:37.790Z,3.12
2022-12-06T04:11:04.738Z,3.11
2022-12-06T04:13:31.908Z,3.12
2022-12-06T04:16:00.954Z,3.13
2022-12-06T04:18:28.380Z,3.15
2022-12-06T04:20:54.838Z,3.17
2022-12-06T04:23:21.656Z,3.18
2022-12-06T04:25:48.427Z,3.21
2022-12-06T04:28:14.935Z,3.22
2022-12-06T04:30:41.513Z,3.25
2022-12-06T04:33:08.058Z,3.27
2022-12-06T04:35:34.578Z,3.31
2022-12-06T04:38:01.016Z,3.33
2022-12-06T04:40:27.545Z,3.37
2022-12-06T04:42:54.039Z,3.39
2022-12-06T04:45:20.568Z,3.41
2022-12-06T04:47:47.132Z,3.44
2022-12-06T04:50:13.608Z,3.47
2022-12-06T04:52:40.216Z,3.50
2022-12-06T04:55:07.126Z,3.53
2022-12-06T04:57:33.656Z,3.55
2022-12-06T05:00:00.688Z,3.58
2022-12-06T05:02:27.463Z,3.61
2022-12-06T05:04:53.936Z,3.63
2022-12-06T05:07:20.600Z,3.67
2022-12-06T05:09:47.094Z,3.67
2022-12-06T05:12:13.604Z,3.67
2022-12-06T05:14:40.060Z,3.66
2022-12-06T05:17:06.674Z,3.63
2022-12-06T05:19:33.209Z,3.60
2022-12-06T05:21:59.765Z,3.59
2022-12-06T05:24:26.283Z,3.57
2022-12-06T05:26:52.750Z,3.55
2022-12-06T05:29:19.291Z,3.56
2022-12-06T05:31:45.780Z,3.56
2022-12-06T05:34:12.477Z,3.55
2022-12-06T05:36:38.990Z,3.57
2022-12-06T05:39:05.661Z,3.57
2022-12-06T05:41:32.114Z,3.58
2022-12-06T05:43:58.552Z,3.57
2022-12-06T05:46:25.125Z,3.57
2022-12-06T05:48:51.720Z,3.56
2022-12-06T05:51:18.266Z,3.55
2022-12-06T05:53:44.827Z,3.54
2022-12-06T05:56:12.454Z,3.53
2022-12-06T05:58:39.821Z,3.50
2022-12-06T06:01:07.265Z,3.47
2022-12-06T06:03:34.252Z,3.42
2022-12-06T06:06:02.156Z,3.38
2022-12-06T06:08:29.556Z,3.35
2022-12-06T06:10:56.841Z,3.33
2022-12-06T06:13:23.762Z,3.34
2022-12-06T06:15:50.396Z,3.36
2022-12-06T06:18:18.533Z,3.35
2022-12-06T06:20:56.510Z,3.30
2022-12-06T06:23:23.493Z,3.38
2022-12-06T06:25:49.988Z,3.38
2022-12-06T06:28:17.385Z,3.41
2022-12-06T06:30:44.634Z,3.41
2022-12-06T06:33:11.720Z,3.41
2022-12-06T06:35:39.052Z,3.42
2022-12-06T06:38:06.006Z,3.44
2022-12-06T06:40:33.118Z,3.44
2022-12-06T06:42:59.659Z,3.48
2022-12-06T06:45:28.918Z,3.51
2022-12-06T06:47:55.788Z,3.53
2022-12-06T06:50:22.345Z,3.56
2022-12-06T06:52:48.926Z,3.58
2022-12-06T06:55:15.497Z,3.63
2022-12-06T06:57:42.014Z,3.66
2022-12-06T07:00:09.159Z,3.69
2022-12-06T07:02:35.886Z,3.73
2022-12-06T07:05:02.456Z,3.76
2022-12-06T07:07:28.896Z,3.80
2022-12-06T07:09:55.412Z,3.83
2022-12-06T07:12:21.899Z,3.84
2022-12-06T07:14:48.357Z,3.88
2022-12-06T07:17:15.064Z,3.91
2022-12-06T07:19:41.739Z,3.93
2022-12-06T07:22:08.288Z,3.94
2022-12-06T07:24:41.290Z,3.97
2022-12-06T07:27:08.896Z,4.00
2022-12-06T07:29:35.373Z,4.03
2022-12-06T07:32:02.005Z,4.07
2022-12-06T07:34:28.538Z,4.10
2022-12-06T07:36:55.163Z,4.13
2022-12-06T07:39:21.734Z,4.17
2022-12-06T07:41:48.266Z,4.20
2022-12-06T07:44:33.433Z,4.24
2022-12-06T07:47:00.395Z,4.27
2022-12-06T07:49:26.966Z,4.31
2022-12-06T07:51:54.592Z,4.38
2022-12-06T07:54:21.284Z,4.42
2022-12-06T07:56:47.866Z,4.47
2022-12-06T07:59:14.589Z,4.50
2022-12-06T08:01:41.346Z,4.54
2022-12-06T08:04:08.215Z,4.58
2022-12-06T08:06:35.464Z,4.61
2022-12-06T08:09:02.002Z,4.63
2022-12-06T08:11:28.746Z,4.66
2022-12-06T08:13:55.653Z,4.69
2022-12-06T08:16:22.243Z,4.69
2022-12-06T08:18:48.813Z,4.69
2022-12-06T08:21:15.542Z,4.68
2022-12-06T08:23:42.218Z,4.66
2022-12-06T08:26:12.299Z,4.62
2022-12-06T08:28:39.370Z,4.60
2022-12-06T08:31:12.606Z,4.55
2022-12-06T08:33:39.824Z,4.53
2022-12-06T08:36:11.896Z,4.52
2022-12-06T08:38:39.296Z,4.50
2022-12-06T08:41:07.477Z,4.52
2022-12-06T08:43:34.008Z,4.52
2022-12-06T08:46:00.587Z,4.53
2022-12-06T08:48:27.646Z,4.51
2022-12-06T08:50:54.122Z,4.56
2022-12-06T08:53:20.685Z,4.59
2022-12-06T08:55:58.923Z,4.65
2022-12-06T08:58:28.773Z,4.73
2022-12-06T09:00:55.308Z,4.84
2022-12-06T09:03:21.851Z,4.95
2022-12-06T09:05:48.381Z,5.06
2022-12-06T09:08:14.986Z,5.16
2022-12-06T09:10:43.365Z,5.24
2022-12-06T09:13:10.083Z,5.32
2022-12-06T09:15:38.487Z,5.38
2022-12-06T09:18:05.159Z,5.44
2022-12-06T09:20:31.684Z,5.51
2022-12-06T09:22:58.137Z,5.58
2022-12-06T09:25:24.562Z,5.63
2022-12-06T09:27:51.134Z,5.71
2022-12-06T09:30:17.622Z,5.77
2022-12-06T09:32:44.079Z,5.82
2022-12-06T09:35:15.048Z,5.87
2022-12-06T09:37:42.702Z,5.91
2022-12-06T09:40:18.598Z,5.95
2022-12-06T09:42:57.070Z,5.99
2022-12-06T09:45:48.943Z,6.04
2022-12-06T09:48:21.134Z,6.07
2022-12-06T09:51:15.459Z,6.12
2022-12-06T09:54:09.704Z,6.18
2022-12-06T09:56:45.510Z,6.23
2022-12-06T09:59:14.864Z,6.27
2022-12-06T10:01:53.619Z,6.31
2022-12-06T10:04:32.402Z,6.33
2022-12-06T10:07:18.745Z,6.39
2022-12-06T10:10:02.534Z,6.42
2022-12-06T10:12:38.157Z,6.47
2022-12-06T10:15:13.146Z,6.48
2022-12-06T10:18:09.420Z,6.48
2022-12-06T10:20:44.451Z,6.51
2022-12-06T10:23:13.873Z,6.54
2022-12-06T10:26:00.573Z,6.54
2022-12-06T10:28:43.848Z,6.59
2022-12-06T10:31:28.102Z,6.60
2022-12-06T10:33:56.628Z,6.65
2022-12-06T10:36:55.448Z,6.70
2022-12-06T10:39:30.061Z,6.74
2022-12-06T10:42:15.018Z,6.78
2022-12-06T10:44:49.582Z,6.81
2022-12-06T10:47:29.372Z,6.84
2022-12-06T10:50:05.551Z,6.88
2022-12-06T10:52:50.266Z,6.92
2022-12-06T10:55:29.825Z,6.96
2022-12-06T10:58:15.077Z,7.01
2022-12-06T11:00:55.005Z,7.04
2022-12-06T11:03:30.465Z,7.09
2022-12-06T11:06:06.678Z,7.15
2022-12-06T11:08:38.099Z,7.20
2022-12-06T11:11:10.236Z,7.24
2022-12-06T11:13:51.327Z,7.29
2022-12-06T11:16:36.052Z,7.29
2022-12-06T11:19:35.756Z,7.30
2022-12-06T11:22:33.751Z,7.30
2022-12-06T11:25:22.301Z,7.33
2022-12-06T11:28:00.357Z,7.35
2022-12-06T11:30:30.274Z,7.38
2022-12-06T11:32:57.412Z,7.41
2022-12-06T11:35:26.568Z,7.42
2022-12-06T11:37:58.204Z,7.43
2022-12-06T11:40:32.450Z,7.45
2022-12-06T11:43:02.524Z,7.47
2022-12-06T11:45:33.456Z,7.48
2022-12-06T11:48:11.342Z,7.50
2022-12-06T11:50:38.018Z,7.51
2022-12-06T11:54:02.458Z,7.51
2022-12-06T11:56:32.487Z,7.54
2022-12-06T11:59:14.581Z,7.56
2022-12-06T12:01:51.040Z,7.57
2022-12-06T12:04:40.365Z,7.58
2022-12-06T12:07:09.522Z,7.62
2022-12-06T12:09:56.700Z,7.62
2022-12-06T12:12:27.669Z,7.61
2022-12-06T12:14:57.995Z,7.62
2022-12-06T12:17:30.987Z,7.63
2022-12-06T12:20:07.408Z,7.62
2022-12-06T12:22:42.637Z,7.63
2022-12-06T12:25:27.672Z,7.62
2022-12-06T12:27:59.087Z,7.62
2022-12-06T12:30:33.317Z,7.60
2022-12-06T12:33:20.189Z,7.56
2022-12-06T12:35:53.322Z,7.54
2022-12-06T12:38:40.757Z,7.53
2022-12-06T12:41:31.020Z,7.49
2022-12-06T12:44:28.855Z,7.47
2022-12-06T12:46:54.804Z,7.41
2022-12-06T12:49:27.366Z,7.37
2022-12-06T12:51:54.881Z,7.34
2022-12-06T12:54:35.923Z,7.28
2022-12-06T12:57:12.143Z,7.25
2022-12-06T12:59:40.869Z,7.23
2022-12-06T13:02:28.297Z,7.20
2022-12-06T13:05:31.482Z,7.18
2022-12-06T13:07:55.477Z,7.18
2022-12-06T13:10:31.421Z,7.16
2022-12-06T13:13:12.519Z,7.16
2022-12-06T13:15:43.737Z,7.14
2022-12-06T13:18:27.054Z,7.13
2022-12-06T13:20:56.728Z,7.15
2022-12-06T13:23:33.354Z,7.15
2022-12-06T13:26:02.721Z,7.15
2022-12-06T13:28:33.643Z,7.15
2022-12-06T13:31:05.037Z,7.15
2022-12-06T13:33:36.496Z,7.16
2022-12-06T13:36:12.042Z,7.16
2022-12-06T13:38:40.638Z,7.14
2022-12-06T13:41:13.449Z,7.14
2022-12-06T13:43:40.317Z,7.12
2022-12-06T13:46:06.964Z,7.10
2022-12-06T13:48:33.422Z,7.07
2022-12-06T13:51:02.763Z,7.04
2022-12-06T13:53:32.065Z,7.00
2022-12-06T13:56:00.002Z,6.97
2022-12-06T13:58:26.401Z,6.96
2022-12-06T14:00:55.460Z,6.95
2022-12-06T14:03:21.936Z,6.93
2022-12-06T14:08:51.862Z,6.89
2022-12-06T14:11:36.601Z,6.90
2022-12-06T14:14:15.092Z,6.90
2022-12-06T14:16:46.132Z,6.89
2022-12-06T14:19:17.793Z,6.91
2022-12-06T14:21:53.649Z,6.89
2022-12-06T14:24:29.133Z,6.89
2022-12-06T14:27:04.073Z,6.89
2022-12-06T14:29:30.725Z,6.90
2022-12-06T14:31:57.358Z,6.93
2022-12-06T14:34:29.383Z,6.93
2022-12-06T14:36:57.417Z,6.94
2022-12-06T14:39:27.974Z,6.94
2022-12-06T14:41:57.355Z,6.94
2022-12-06T14:44:32.035Z,6.94
2022-12-06T14:46:59.022Z,6.93
2022-12-06T14:49:27.629Z,6.94
2022-12-06T14:51:54.114Z,6.92
2022-12-06T14:54:42.799Z,6.88
2022-12-06T14:57:35.703Z,6.85
2022-12-06T15:00:25.959Z,6.84
2022-12-06T15:02:59.686Z,6.82
2022-12-06T15:05:37.065Z,6.82
2022-12-06T15:08:18.894Z,6.78
2022-12-06T15:10:57.742Z,6.78
2022-12-06T15:13:24.745Z,6.78
2022-12-06T15:16:02.436Z,6.76
2022-12-06T15:18:36.235Z,6.75
2022-12-06T15:21:03.405Z,6.75
2022-12-06T15:23:38.551Z,6.71
2022-12-06T15:26:07.812Z,6.70
2022-12-06T15:28:35.222Z,6.69
2022-12-06T15:31:03.876Z,6.64
2022-12-06T15:33:30.797Z,6.63
2022-12-06T15:35:57.399Z,6.62
2022-12-06T15:38:25.139Z,6.61
2022-12-06T15:40:54.027Z,6.59
2022-12-06T15:43:24.021Z,6.59
2022-12-06T15:45:50.538Z,6.57
2022-12-06T15:48:17.378Z,6.56
2022-12-06T15:50:43.869Z,6.54
2022-12-06T15:53:15.496Z,6.51
2022-12-06T15:55:42.432Z,6.50
2022-12-06T15:58:08.897Z,6.48
2022-12-06T16:00:35.378Z,6.46
2022-12-06T16:03:02.138Z,6.45
2022-12-06T16:05:28.868Z,6.42
2022-12-06T16:07:55.420Z,6.40
2022-12-06T16:10:23.235Z,6.38
2022-12-06T16:12:53.082Z,6.37
2022-12-06T16:15:19.653Z,6.35
2022-12-06T16:17:46.169Z,6.32
2022-12-06T16:20:15.694Z,6.29
2022-12-06T16:22:42.145Z,6.26
2022-12-06T16:25:08.941Z,6.25
2022-12-06T16:27:35.375Z,6.23
2022-12-06T16:30:03.440Z,6.21
2022-12-06T16:32:29.839Z,6.13
2022-12-06T16:34:56.371Z,6.18
2022-12-06T16:37:22.837Z,6.18
2022-12-06T16:39:49.301Z,6.18
2022-12-06T16:42:15.782Z,6.18
2022-12-06T16:44:42.310Z,6.18
2022-12-06T16:47:08.808Z,6.17
2022-12-06T16:49:48.757Z,6.17
2022-12-06T16:52:16.451Z,6.17
2022-12-06T16:54:43.089Z,6.16
2022-12-06T16:57:11.834Z,6.14
2022-12-06T16:59:38.307Z,6.12
2022-12-06T17:02:30.344Z,6.09
2022-12-06T17:04:59.190Z,6.07
2022-12-06T17:07:26.357Z,6.05
2022-12-06T17:09:53.486Z,6.04
2022-12-06T17:12:23.050Z,6.00
2022-12-06T17:14:50.377Z,5.98
2022-12-06T17:17:21.058Z,5.96
2022-12-06T17:19:48.624Z,5.93
2022-12-06T17:22:16.721Z,5.89
2022-12-06T17:24:43.181Z,5.79
2022-12-06T17:27:09.648Z,5.82
2022-12-06T17:29:36.644Z,5.80
2022-12-06T17:32:03.401Z,5.77
2022-12-06T17:34:29.878Z,5.75
2022-12-06T17:36:56.402Z,5.73
2022-12-06T17:39:22.966Z,5.71
2022-12-06T17:41:52.068Z,5.70
2022-12-06T17:44:19.470Z,5.68
2022-12-06T17:46:46.436Z,5.67
2022-12-06T17:49:16.349Z,5.66
2022-12-06T17:51:42.907Z,5.65
2022-12-06T17:54:09.733Z,5.64
2022-12-06T17:56:39.036Z,5.65
2022-12-06T17:59:08.726Z,5.66
2022-12-06T18:02:06.083Z,5.67
2022-12-06T18:04:22.897Z,5.64
2022-12-06T18:06:49.412Z,5.66
2022-12-06T18:09:16.126Z,5.67
2022-12-06T18:11:43.180Z,5.67
2022-12-06T18:14:11.662Z,5.66
2022-12-06T18:16:40.255Z,5.65
2022-12-06T18:19:11.418Z,5.67
2022-12-06T18:21:38.761Z,5.68
2022-12-06T18:24:30.519Z,5.67
2022-12-06T18:26:57.280Z,5.70
2022-12-06T18:29:23.810Z,5.69
2022-12-06T18:31:52.356Z,5.69
2022-12-06T18:34:19.340Z,5.69
2022-12-06T18:36:46.730Z,5.69
2022-12-06T18:39:16.544Z,5.67
2022-12-06T18:41:44.679Z,5.69
2022-12-06T18:44:11.798Z,5.61
2022-12-06T18:46:38.483Z,5.68
2022-12-06T18:49:05.115Z,5.70
2022-12-06T18:51:34.493Z,5.69
2022-12-06T18:54:01.705Z,5.71
2022-12-06T18:56:28.793Z,5.71
2022-12-06T18:59:00.825Z,5.71
2022-12-06T19:04:15.794Z,5.72
2022-12-06T19:06:43.283Z,5.74
2022-12-06T19:09:12.431Z,5.73
2022-12-06T19:11:40.826Z,5.74
2022-12-06T19:14:07.740Z,5.73
2022-12-06T19:16:40.332Z,5.73
2022-12-06T19:19:15.540Z,5.73
2022-12-06T19:21:43.197Z,5.73
2022-12-06T19:24:11.113Z,5.73
2022-12-06T19:26:37.642Z,5.73
2022-12-06T19:29:04.114Z,5.74
2022-12-06T19:31:30.845Z,5.74
2022-12-06T19:33:57.335Z,5.75
2022-12-06T19:36:29.209Z,5.76
2022-12-06T19:39:00.501Z,5.75
2022-12-06T19:41:27.684Z,5.74
2022-12-06T19:43:54.686Z,5.73
2022-12-06T19:46:23.972Z,5.72
2022-12-06T19:48:50.559Z,5.72
2022-12-06T19:51:17.103Z,5.73
2022-12-06T19:53:43.855Z,5.73
2022-12-06T19:56:14.317Z,5.72
2022-12-06T19:58:40.870Z,5.72
2022-12-06T20:01:14.465Z,5.73
2022-12-06T20:03:41.402Z,5.72
2022-12-06T20:06:16.602Z,5.72
2022-12-06T20:08:45.612Z,5.72
2022-12-06T20:11:14.341Z,5.72
2022-12-06T20:13:40.833Z,5.73
2022-12-06T20:16:07.570Z,5.72
2022-12-06T20:18:34.078Z,5.71
2022-12-06T20:21:00.612Z,5.70
2022-12-06T20:23:27.145Z,5.69
2022-12-06T20:25:57.006Z,5.67
2022-12-06T20:28:23.483Z,5.66
2022-12-06T20:30:50.030Z,5.67
2022-12-06T20:33:16.519Z,5.64
2022-12-06T20:35:42.992Z,5.64
2022-12-06T20:38:09.632Z,5.62
2022-12-06T20:40:36.102Z,5.63
2022-12-06T20:43:02.684Z,5.63
2022-12-06T20:45:29.187Z,5.62
2022-12-06T20:47:55.802Z,5.62
2022-12-06T20:50:22.393Z,5.61
2022-12-06T20:52:49.031Z,5.61
2022-12-06T20:55:15.526Z,5.60
2022-12-06T20:57:42.113Z,5.60
2022-12-06T21:00:09.786Z,5.59
2022-12-06T21:02:36.626Z,5.58
2022-12-06T21:05:04.060Z,5.58
2022-12-06T21:07:30.566Z,5.57
2022-12-06T21:09:57.036Z,5.59
2022-12-06T21:12:23.673Z,5.57
2022-12-06T21:14:50.243Z,5.56
2022-12-06T21:17:16.758Z,5.55
2022-12-06T21:19:43.301Z,5.55
2022-12-06T21:22:09.873Z,5.55
2022-12-06T21:24:36.337Z,5.55
2022-12-06T21:27:02.858Z,5.54
2022-12-06T21:29:31.129Z,5.55
2022-12-06T21:32:00.743Z,5.55
2022-12-06T21:34:27.259Z,5.57
2022-12-06T21:36:53.917Z,5.58
2022-12-06T21:39:20.400Z,5.59
2022-12-06T21:41:46.959Z,5.59
2022-12-06T21:44:13.499Z,5.58
2022-12-06T21:46:40.091Z,5.59
2022-12-06T21:49:06.660Z,5.59
2022-12-06T21:51:33.357Z,5.59
2022-12-06T21:54:00.121Z,5.60
2022-12-06T21:56:29.203Z,5.57
2022-12-06T21:58:56.394Z,5.56
2022-12-06T22:01:26.080Z,5.54
2022-12-06T22:03:54.273Z,5.55
2022-12-06T22:06:21.197Z,5.47
2022-12-06T22:08:48.737Z,5.53
2022-12-06T22:11:17.936Z,5.52
2022-12-06T22:13:45.858Z,5.53
2022-12-06T22:16:12.890Z,5.53
2022-12-06T22:18:45.307Z,5.54
2022-12-06T22:21:23.895Z,5.52
2022-12-06T22:23:51.117Z,5.54
2022-12-06T22:26:20.932Z,5.53
2022-12-06T22:28:48.211Z,5.57
2022-12-06T22:31:21.074Z,5.57
2022-12-06T22:33:49.336Z,5.57
2022-12-06T22:36:16.118Z,5.49
2022-12-06T22:38:43.288Z,5.54
2022-12-06T22:41:10.058Z,5.55
2022-12-06T22:43:37.001Z,5.55
2022-12-06T22:46:09.245Z,5.54
2022-12-06T22:48:36.604Z,5.55
2022-12-06T22:51:11.877Z,5.54
2022-12-06T22:53:40.037Z,5.55
2022-12-06T22:56:06.788Z,5.46
2022-12-06T22:58:33.690Z,5.53
2022-12-06T23:01:07.096Z,5.55
2022-12-06T23:03:33.691Z,5.53
2022-12-06T23:06:00.223Z,5.52
2022-12-06T23:08:26.999Z,5.52
2022-12-06T23:11:00.697Z,5.50
2022-12-06T23:13:27.721Z,5.52
2022-12-06T23:15:55.963Z,5.52
2022-12-06T23:18:22.849Z,5.52
2022-12-06T23:20:49.374Z,5.57
2022-12-06T23:23:15.894Z,5.58
2022-12-06T23:25:42.413Z,5.59
2022-12-06T23:28:09.387Z,5.59
2022-12-06T23:30:35.886Z,5.56
2022-12-06T23:33:02.506Z,5.54
2022-12-06T23:35:29.133Z,5.49
2022-12-06T23:37:55.725Z,5.49
2022-12-06T23:40:22.171Z,5.48
2022-12-06T23:42:48.641Z,5.44
2022-12-06T23:45:15.232Z,5.45
2022-12-06T23:47:41.764Z,5.43
2022-12-06T23:50:08.637Z,5.41
2022-12-06T23:52:35.209Z,5.39
2022-12-06T23:55:01.674Z,5.37
2022-12-06T23:57:28.540Z,5.35
2022-12-06T23:59:55.019Z,5.33
